Time;durP1;ratioP1;P1;durP2;ratioP2;P2;SDS_P1;SDS_P2;PMS_P1;PMS_P2;Temp;Humidity;BMP_temperature;BMP_pressure;BME280_temperature;BME280_humidity;BME280_pressure;Samples;Min_cycle;Max_cycle;Signal;HPM_P1;HPM_P2
2023/10/07 00:02:16;;;;;;;8.40;4.63;;;10.00;98.00;;;;;;5072057;28;20452;-63
2023/10/07 00:04:45;;;;;;;12.80;4.93;;;9.90;98.00;;;;;;5072356;28;20546;-63
2023/10/07 00:07:13;;;;;;;9.37;4.43;;;9.80;98.00;;;;;;5054436;28;20515;-63
2023/10/07 00:09:41;;;;;;;7.63;4.00;;;9.80;98.00;;;;;;5071922;28;20453;-63
2023/10/07 00:12:13;;;;;;;8.53;4.50;;;9.70;98.00;;;;;;5053885;28;20473;-63
2023/10/07 00:14:41;;;;;;;12.47;4.90;;;9.80;98.00;;;;;;5071902;28;20526;-63
2023/10/07 00:17:16;;;;;;;11.97;4.73;;;9.90;98.00;;;;;;5053908;28;20450;-63
2023/10/07 00:19:43;;;;;;;10.60;5.10;;;9.90;98.00;;;;;;5071852;28;20455;-64
2023/10/07 00:22:13;;;;;;;9.47;4.43;;;9.80;98.00;;;;;;5071638;28;20441;-63
2023/10/07 00:24:45;;;;;;;8.60;4.00;;;9.90;98.00;;;;;;5071595;28;20445;-63
2023/10/07 00:27:26;;;;;;;14.43;4.70;;;9.80;98.00;;;;;;5071525;28;20483;-63
2023/10/07 00:29:59;;;;;;;11.37;4.90;;;9.60;98.00;;;;;;5071652;28;20866;-64
2023/10/07 00:32:28;;;;;;;11.23;4.90;;;9.60;98.00;;;;;;5071581;28;20512;-63
2023/10/07 00:34:59;;;;;;;9.27;4.20;;;9.60;98.00;;;;;;5071463;28;20512;-65
2023/10/07 00:37:26;;;;;;;11.70;4.70;;;9.50;98.00;;;;;;5071558;28;21239;-63
2023/10/07 00:39:54;;;;;;;7.37;4.10;;;9.50;98.00;;;;;;5071413;28;20510;-64
2023/10/07 00:42:25;;;;;;;11.27;4.93;;;9.40;98.00;;;;;;5071430;28;20457;-63
2023/10/07 00:44:53;;;;;;;9.77;4.50;;;9.40;98.00;;;;;;5071555;28;20812;-64
2023/10/07 00:47:21;;;;;;;10.07;4.70;;;9.50;98.00;;;;;;5071453;28;20476;-64
2023/10/07 00:49:54;;;;;;;12.70;4.90;;;9.50;98.00;;;;;;5053843;28;20458;-63
2023/10/07 00:52:29;;;;;;;9.47;3.83;;;9.50;98.00;;;;;;5071061;28;20491;-64
2023/10/07 00:55:08;;;;;;;10.53;4.73;;;9.50;98.00;;;;;;5072031;28;20514;-63
2023/10/07 00:57:47;;;;;;;12.17;5.00;;;9.50;98.00;;;;;;5075337;28;20535;-63
2023/10/07 01:00:34;;;;;;;11.23;4.40;;;9.40;98.00;;;;;;5075264;28;20448;-63
2023/10/07 01:03:17;;;;;;;11.90;4.90;;;9.40;98.00;;;;;;5075333;28;20459;-63
2023/10/07 01:06:09;;;;;;;7.77;4.40;;;9.30;98.00;;;;;;5075190;28;20896;-63
2023/10/07 01:08:35;;;;;;;9.43;4.70;;;9.30;98.00;;;;;;5074738;28;20448;-63
2023/10/07 01:11:19;;;;;;;12.30;5.30;;;9.30;98.00;;;;;;5074740;28;20453;-63
2023/10/07 01:14:00;;;;;;;12.00;5.10;;;9.40;98.00;;;;;;5074952;28;20481;-63
2023/10/07 01:16:41;;;;;;;8.80;4.40;;;9.30;98.00;;;;;;5075017;28;20538;-64
2023/10/07 01:19:26;;;;;;;10.53;4.80;;;9.40;98.00;;;;;;5074743;28;20852;-62
2023/10/07 01:21:55;;;;;;;12.23;4.40;;;9.40;98.00;;;;;;5074920;28;20460;-63
2023/10/07 01:24:34;;;;;;;11.30;4.43;;;9.40;98.00;;;;;;5075112;28;20448;-62
2023/10/07 01:27:07;;;;;;;9.57;4.20;;;9.30;98.00;;;;;;5074843;28;20887;-64
2023/10/07 01:29:35;;;;;;;14.13;4.43;;;9.20;98.00;;;;;;5075025;28;20459;-63
2023/10/07 01:32:11;;;;;;;10.10;4.90;;;9.00;98.00;;;;;;5074479;28;20480;-63
2023/10/07 01:34:38;;;;;;;10.13;4.70;;;9.00;98.00;;;;;;5074875;28;20455;-64
2023/10/07 01:37:07;;;;;;;9.43;4.73;;;9.30;98.00;;;;;;5074519;28;20453;-63
2023/10/07 01:39:41;;;;;;;11.67;4.93;;;9.40;98.00;;;;;;5074726;28;20545;-62
2023/10/07 01:42:12;;;;;;;13.00;4.70;;;9.20;98.00;;;;;;5074621;28;20533;-63
2023/10/07 01:44:41;;;;;;;11.67;4.90;;;9.30;98.00;;;;;;5074717;28;20464;-63
2023/10/07 01:47:23;;;;;;;12.73;4.77;;;9.00;98.00;;;;;;5074628;28;20540;-62
2023/10/07 01:49:53;;;;;;;12.37;4.90;;;8.80;98.00;;;;;;5074514;28;20797;-62
2023/10/07 01:52:24;;;;;;;12.40;4.43;;;8.80;98.00;;;;;;5074398;28;20828;-63
2023/10/07 01:54:53;;;;;;;11.10;4.80;;;8.80;98.00;;;;;;5074230;28;20542;-63
2023/10/07 01:57:21;;;;;;;12.93;4.33;;;8.90;98.00;;;;;;5074193;28;20487;-63
2023/10/07 01:59:48;;;;;;;15.97;5.53;;;8.90;98.00;;;;;;5056544;28;20447;-63
2023/10/07 02:02:15;;;;;;;11.53;4.90;;;8.70;98.00;;;;;;5074117;28;20849;-63
2023/10/07 02:04:42;;;;;;;11.87;4.80;;;8.60;98.00;;;;;;5073947;28;20467;-63
2023/10/07 02:07:10;;;;;;;9.77;4.27;;;8.80;98.00;;;;;;5072616;28;20484;-62
2023/10/07 02:09:41;;;;;;;11.53;4.63;;;8.90;98.00;;;;;;5073988;28;20850;-63
2023/10/07 02:12:09;;;;;;;13.00;4.67;;;8.90;98.00;;;;;;5056603;28;20489;-64
2023/10/07 02:14:37;;;;;;;10.70;4.53;;;8.70;98.00;;;;;;5073875;28;20456;-62
2023/10/07 02:17:06;;;;;;;9.30;4.57;;;8.60;98.00;;;;;;5073456;28;20448;-64
2023/10/07 02:19:34;;;;;;;10.83;5.20;;;8.50;98.00;;;;;;5073778;28;20451;-63
2023/10/07 02:22:03;;;;;;;8.33;4.30;;;8.50;98.00;;;;;;5073559;28;20973;-63
2023/10/07 02:24:32;;;;;;;11.53;4.27;;;8.50;98.00;;;;;;5073940;28;20945;-63
2023/10/07 02:27:04;;;;;;;10.43;4.60;;;8.50;98.00;;;;;;5073598;28;20813;-63
2023/10/07 02:29:33;;;;;;;16.27;4.90;;;8.50;98.00;;;;;;5073512;28;20448;-63
2023/10/07 02:32:12;;;;;;;14.93;4.87;;;8.40;98.00;;;;;;5073379;28;20463;-63
2023/10/07 02:34:51;;;;;;;15.90;4.60;;;8.40;98.00;;;;;;5073479;28;20463;-63
2023/10/07 02:37:21;;;;;;;11.03;4.50;;;8.60;98.00;;;;;;5057225;28;20514;-63
2023/10/07 02:39:48;;;;;;;11.70;4.67;;;8.60;98.00;;;;;;5073535;28;20538;-63
2023/10/07 02:42:22;;;;;;;16.80;5.30;;;8.60;98.00;;;;;;5073198;28;20931;-63
2023/10/07 02:45:11;;;;;;;8.13;4.80;;;8.70;98.00;;;;;;5073257;28;20460;-63
2023/10/07 02:47:39;;;;;;;11.93;5.17;;;8.60;98.00;;;;;;5072671;28;20549;-63
2023/10/07 02:50:08;;;;;;;7.73;4.17;;;8.50;98.00;;;;;;5072398;28;20449;-63
2023/10/07 02:52:37;;;;;;;10.67;4.00;;;8.40;98.00;;;;;;5072446;28;20507;-63
2023/10/07 02:57:55;;;;;;;10.57;4.80;;;8.60;98.00;;;;;;5050499;28;20469;-62
2023/10/07 03:00:35;;;;;;;9.43;4.10;;;8.50;98.00;;;;;;5073190;28;20465;-63
2023/10/07 03:03:20;;;;;;;10.90;4.87;;;8.50;98.00;;;;;;5073101;28;20951;-63
2023/10/07 03:05:57;;;;;;;11.17;4.40;;;8.40;98.00;;;;;;5072768;28;20464;-63
2023/10/07 03:08:39;;;;;;;8.13;4.67;;;8.30;98.00;;;;;;5072925;28;20449;-63
2023/10/07 03:11:11;;;;;;;12.10;4.40;;;8.30;98.00;;;;;;5043226;28;20453;-63
2023/10/07 03:13:45;;;;;;;11.27;4.60;;;8.20;98.00;;;;;;5072914;28;20841;-63
2023/10/07 03:16:35;;;;;;;8.83;3.93;;;8.30;98.00;;;;;;5072762;28;20858;-63
2023/10/07 03:19:18;;;;;;;10.27;4.10;;;8.30;98.00;;;;;;5072732;28;20458;-63
2023/10/07 03:22:09;;;;;;;9.20;3.50;;;8.30;98.00;;;;;;5072818;28;20451;-64
2023/10/07 03:24:48;;;;;;;8.90;4.40;;;8.30;98.00;;;;;;5058349;28;20452;-63
2023/10/07 03:27:22;;;;;;;10.07;4.27;;;8.20;98.00;;;;;;5072712;28;20456;-64
2023/10/07 03:30:12;;;;;;;9.83;4.20;;;8.20;98.00;;;;;;5072676;28;20486;-63
2023/10/07 03:33:01;;;;;;;8.50;3.90;;;8.30;98.00;;;;;;5072394;28;20494;-65
2023/10/07 03:35:47;;;;;;;8.67;4.40;;;8.30;98.00;;;;;;5072458;28;20970;-64
2023/10/07 03:38:15;;;;;;;11.50;4.20;;;8.40;98.00;;;;;;5072115;28;20452;-63
2023/10/07 03:40:48;;;;;;;9.17;4.30;;;8.50;98.00;;;;;;5072220;28;20462;-64
2023/10/07 03:43:16;;;;;;;11.60;4.07;;;8.60;98.00;;;;;;5055449;28;20527;-65
2023/10/07 03:45:45;;;;;;;8.80;4.00;;;8.70;98.00;;;;;;5072045;28;20456;-63
2023/10/07 03:48:24;;;;;;;9.57;4.13;;;8.70;98.00;;;;;;5071953;28;20452;-63
2023/10/07 03:50:59;;;;;;;13.30;4.30;;;8.50;98.00;;;;;;5071719;28;20452;-63
2023/10/07 03:53:31;;;;;;;8.17;3.77;;;8.30;98.00;;;;;;5071568;28;20516;-63
2023/10/07 03:56:06;;;;;;;10.33;4.20;;;8.40;98.00;;;;;;5071986;28;20449;-64
2023/10/07 03:58:36;;;;;;;7.13;4.20;;;8.30;98.00;;;;;;5072120;28;20500;-63
2023/10/07 04:01:11;;;;;;;9.10;4.70;;;8.30;98.00;;;;;;5071799;28;20452;-63
2023/10/07 04:03:46;;;;;;;10.97;4.43;;;8.30;98.00;;;;;;5071989;28;20459;-63
2023/10/07 04:06:14;;;;;;;9.63;4.10;;;8.10;98.00;;;;;;5071781;28;20459;-64
2023/10/07 04:08:41;;;;;;;14.70;4.93;;;8.20;98.00;;;;;;5071870;28;20457;-62
2023/10/07 04:11:19;;;;;;;10.40;4.10;;;8.20;98.00;;;;;;5071733;28;20939;-63
2023/10/07 04:13:53;;;;;;;11.20;4.53;;;8.30;98.00;;;;;;5072027;28;20480;-63
2023/10/07 04:16:24;;;;;;;8.20;4.43;;;8.40;98.00;;;;;;5071871;28;20539;-63
2023/10/07 04:19:01;;;;;;;9.93;4.70;;;8.30;98.00;;;;;;5071850;28;20453;-62
2023/10/07 04:21:30;;;;;;;13.60;4.20;;;8.10;98.00;;;;;;5071825;28;20515;-63
2023/10/07 04:23:57;;;;;;;11.40;4.43;;;8.00;98.00;;;;;;5071936;28;20541;-63
2023/10/07 04:26:25;;;;;;;13.50;4.43;;;8.20;98.00;;;;;;5071881;28;20461;-64
2023/10/07 04:28:54;;;;;;;8.37;3.63;;;8.20;98.00;;;;;;5071786;28;20501;-64
2023/10/07 04:31:29;;;;;;;12.10;4.23;;;8.10;98.00;;;;;;5074738;28;20539;-62
2023/10/07 04:34:14;;;;;;;14.47;4.50;;;8.10;98.00;;;;;;5059161;28;20485;-63
2023/10/07 04:37:12;;;;;;;10.47;4.77;;;7.90;98.00;;;;;;5059149;28;20457;-63
2023/10/07 04:39:38;;;;;;;12.23;4.43;;;8.00;98.00;;;;;;5075385;28;20896;-64
2023/10/07 04:42:06;;;;;;;10.77;4.80;;;8.10;98.00;;;;;;5075620;28;20454;-64
2023/10/07 04:47:34;;;;;;;12.13;4.53;;;8.10;98.00;;;;;;5075643;28;20587;-63
2023/10/07 04:50:08;;;;;;;8.40;4.23;;;8.10;98.00;;;;;;5075464;28;20492;-63
2023/10/07 04:52:40;;;;;;;10.50;4.50;;;8.10;98.00;;;;;;5075545;28;20530;-62
2023/10/07 04:55:12;;;;;;;9.23;4.33;;;8.10;98.00;;;;;;5058487;28;20468;-63
2023/10/07 04:57:44;;;;;;;14.70;4.87;;;8.10;98.00;;;;;;5075067;28;20461;-63
2023/10/07 05:00:30;;;;;;;6.83;3.60;;;8.20;98.00;;;;;;5075201;28;20913;-63
2023/10/07 05:03:00;;;;;;;9.70;3.90;;;8.30;98.00;;;;;;5075223;28;20535;-64
2023/10/07 05:05:30;;;;;;;9.70;4.70;;;8.30;98.00;;;;;;5075550;28;20455;-62
2023/10/07 05:08:08;;;;;;;7.10;3.97;;;8.30;98.00;;;;;;5075471;28;20841;-63
2023/10/07 05:10:38;;;;;;;8.27;4.20;;;8.10;98.00;;;;;;5075040;28;20459;-63
2023/10/07 05:13:06;;;;;;;10.57;4.50;;;7.80;98.00;;;;;;5075378;28;20516;-63
2023/10/07 05:15:36;;;;;;;9.93;4.50;;;7.80;98.00;;;;;;5075106;28;20807;-63
2023/10/07 05:18:05;;;;;;;7.93;4.37;;;7.80;98.00;;;;;;5074686;28;21021;-63
2023/10/07 05:20:36;;;;;;;9.10;4.60;;;7.60;98.00;;;;;;5074687;28;20476;-63
2023/10/07 05:23:04;;;;;;;10.83;4.47;;;7.50;98.00;;;;;;5075005;28;20469;-63
2023/10/07 05:25:35;;;;;;;8.50;3.83;;;7.60;98.00;;;;;;5074668;28;20463;-63
2023/10/07 05:28:04;;;;;;;9.47;4.10;;;7.70;98.00;;;;;;5074645;28;20453;-63
2023/10/07 05:30:36;;;;;;;11.80;4.50;;;7.80;98.00;;;;;;5074682;28;20449;-63
2023/10/07 05:33:08;;;;;;;7.97;3.80;;;7.70;98.00;;;;;;5074368;28;20460;-63
2023/10/07 05:35:37;;;;;;;11.47;4.13;;;7.60;98.00;;;;;;5074673;28;20457;-63
2023/10/07 05:38:09;;;;;;;7.13;3.90;;;7.90;98.00;;;;;;5073896;28;20450;-63
2023/10/07 05:40:37;;;;;;;9.80;3.73;;;8.10;98.00;;;;;;5074285;28;20545;-63
2023/10/07 05:43:08;;;;;;;9.30;4.20;;;8.00;98.00;;;;;;5074462;28;20491;-64
2023/10/07 05:45:35;;;;;;;7.87;4.27;;;7.70;98.00;;;;;;5074526;28;20943;-63
2023/10/07 05:48:03;;;;;;;12.10;4.77;;;7.90;98.00;;;;;;5056287;28;20466;-63
2023/10/07 05:50:32;;;;;;;8.90;4.40;;;8.10;98.00;;;;;;5074321;28;20472;-63
2023/10/07 05:53:02;;;;;;;7.50;3.93;;;8.00;98.00;;;;;;5074134;28;20457;-63
2023/10/07 05:55:30;;;;;;;11.60;4.50;;;7.90;98.00;;;;;;5074418;28;20545;-63
2023/10/07 05:57:58;;;;;;;9.87;4.70;;;7.80;98.00;;;;;;5074188;28;20453;-60
2023/10/07 06:00:31;;;;;;;7.57;4.03;;;7.70;98.00;;;;;;5073997;28;20471;-59
2023/10/07 06:02:59;;;;;;;9.93;4.77;;;7.70;98.00;;;;;;5074271;28;20453;-60
2023/10/07 06:05:29;;;;;;;9.43;4.50;;;7.60;98.00;;;;;;5074103;28;20455;-59
2023/10/07 06:07:57;;;;;;;10.77;4.33;;;7.60;98.00;;;;;;5074041;28;20441;-59
2023/10/07 06:10:25;;;;;;;7.87;3.80;;;7.70;98.00;;;;;;5073713;28;20451;-59
2023/10/07 06:12:55;;;;;;;9.10;4.47;;;7.90;98.00;;;;;;5074029;28;20464;-60
2023/10/07 06:15:24;;;;;;;11.90;4.60;;;8.00;98.00;;;;;;5073838;28;20512;-59
2023/10/07 06:17:51;;;;;;;13.47;4.70;;;8.30;98.00;;;;;;5073999;28;20451;-60
2023/10/07 06:20:26;;;;;;;9.90;3.83;;;8.30;98.00;;;;;;5074054;28;20457;-59
2023/10/07 06:22:56;;;;;;;13.37;5.50;;;8.20;98.00;;;;;;5073910;28;20460;-60
2023/10/07 06:25:30;;;;;;;14.13;5.80;;;8.30;98.00;;;;;;5074039;28;20480;-59
2023/10/07 06:27:59;;;;;;;16.13;5.30;;;8.20;98.00;;;;;;5073836;28;20463;-60
2023/10/07 06:30:27;;;;;;;12.40;5.07;;;8.30;98.00;;;;;;5073967;28;20445;-59
2023/10/07 06:32:56;;;;;;;10.37;4.80;;;8.40;98.00;;;;;;5056042;28;20460;-60
2023/10/07 06:35:24;;;;;;;8.00;4.27;;;8.50;98.00;;;;;;5073854;28;20542;-59
2023/10/07 06:37:52;;;;;;;9.80;4.60;;;8.50;98.00;;;;;;5073738;28;20476;-60
2023/10/07 06:40:28;;;;;;;8.30;4.53;;;8.60;98.00;;;;;;5055948;28;20458;-60
2023/10/07 06:42:58;;;;;;;15.50;4.47;;;8.60;98.00;;;;;;5073517;28;20457;-60
2023/10/07 06:45:35;;;;;;;14.13;4.90;;;8.50;98.00;;;;;;5056059;28;20547;-61
2023/10/07 06:48:05;;;;;;;13.47;5.13;;;8.40;98.00;;;;;;5073655;28;20460;-60
2023/10/07 06:50:33;;;;;;;13.17;5.00;;;8.50;98.00;;;;;;5073107;28;20889;-60
2023/10/07 06:53:01;;;;;;;11.53;4.97;;;8.60;98.00;;;;;;5072850;28;20799;-59
2023/10/07 06:55:32;;;;;;;9.43;4.50;;;8.60;98.00;;;;;;5055716;28;20477;-59
2023/10/07 06:57:59;;;;;;;11.63;4.80;;;8.60;98.00;;;;;;5072873;28;20974;-60
2023/10/07 07:00:45;;;;;;;9.70;5.03;;;8.70;98.00;;;;;;5055588;28;20786;-60
2023/10/07 07:03:12;;;;;;;14.80;4.90;;;8.70;98.00;;;;;;5057669;28;20452;-61
2023/10/07 07:05:40;;;;;;;16.63;4.83;;;8.80;98.00;;;;;;5072741;28;20458;-60
2023/10/07 07:08:10;;;;;;;11.43;5.10;;;8.80;98.00;;;;;;5054968;28;20984;-59
2023/10/07 07:10:36;;;;;;;23.17;5.20;;;9.00;98.00;;;;;;5072707;28;20513;-59
2023/10/07 07:13:12;;;;;;;21.13;8.50;;;9.10;98.00;;;;;;5072685;28;20955;-59
2023/10/07 07:15:43;;;;;;;13.23;5.87;;;9.10;98.00;;;;;;5072582;28;20486;-59
2023/10/07 07:18:16;;;;;;;11.93;5.00;;;9.10;98.00;;;;;;5072456;28;20869;-60
2023/10/07 07:20:48;;;;;;;10.80;5.40;;;9.20;98.00;;;;;;5072520;28;20458;-59
2023/10/07 07:23:17;;;;;;;12.80;5.10;;;9.40;98.00;;;;;;5072574;28;20449;-59
2023/10/07 07:25:49;;;;;;;16.10;5.77;;;9.70;98.00;;;;;;5072461;28;20454;-59
2023/10/07 07:28:17;;;;;;;13.23;4.50;;;9.80;98.00;;;;;;5072349;28;20531;-60
2023/10/07 07:30:46;;;;;;;11.33;5.40;;;9.80;98.00;;;;;;5072417;28;20456;-59
2023/10/07 07:33:15;;;;;;;15.53;5.43;;;9.90;98.00;;;;;;5072096;28;20545;-60
2023/10/07 07:35:44;;;;;;;11.63;5.07;;;10.00;98.00;;;;;;5071575;28;20486;-60
2023/10/07 07:38:17;;;;;;;10.73;5.10;;;10.30;98.00;;;;;;5071504;28;20458;-59
2023/10/07 07:40:44;;;;;;;17.63;5.50;;;10.30;98.00;;;;;;5071706;28;20488;-60
2023/10/07 07:43:13;;;;;;;9.90;5.20;;;10.30;98.00;;;;;;5071322;28;20818;-60
2023/10/07 07:45:40;;;;;;;12.50;5.13;;;10.30;98.00;;;;;;5071423;28;20448;-59
2023/10/07 07:48:11;;;;;;;12.53;4.87;;;10.50;98.00;;;;;;5053724;28;20535;-60
2023/10/07 07:50:41;;;;;;;10.23;4.80;;;10.50;98.00;;;;;;5071599;28;20878;-60
2023/10/07 07:53:08;;;;;;;9.83;4.80;;;10.60;98.00;;;;;;5054133;28;20480;-59
2023/10/07 07:55:43;;;;;;;12.13;5.43;;;10.70;98.00;;;;;;5071480;28;20494;-60
2023/10/07 07:58:11;;;;;;;13.83;5.47;;;10.80;98.00;;;;;;5071394;28;20453;-59
2023/10/07 08:00:44;;;;;;;9.23;4.90;;;10.90;98.00;;;;;;5053798;28;20453;-60
2023/10/07 08:03:13;;;;;;;10.60;4.90;;;11.00;98.00;;;;;;5071371;28;20465;-61
2023/10/07 08:05:41;;;;;;;15.33;6.10;;;11.00;98.00;;;;;;5070688;28;20450;-60
2023/10/07 08:08:19;;;;;;;11.60;5.23;;;11.10;98.00;;;;;;5071545;28;20443;-60
2023/10/07 08:10:47;;;;;;;14.13;6.40;;;11.30;98.00;;;;;;5070578;28;20445;-60
2023/10/07 08:13:17;;;;;;;18.97;6.70;;;11.40;98.00;;;;;;5071713;28;20448;-60
2023/10/07 08:15:48;;;;;;;15.83;6.57;;;11.50;98.00;;;;;;5071970;28;20520;-60
2023/10/07 08:18:22;;;;;;;26.00;8.77;;;11.80;98.00;;;;;;5071453;28;20547;-60
2023/10/07 08:20:56;;;;;;;21.17;8.40;;;12.00;98.00;;;;;;5072194;28;20593;-59
2023/10/07 08:23:28;;;;;;;20.17;7.80;;;12.00;98.00;;;;;;5072105;28;20455;-59
2023/10/07 08:26:08;;;;;;;16.73;6.43;;;12.00;98.00;;;;;;5072270;28;20454;-60
2023/10/07 08:28:44;;;;;;;12.60;6.00;;;12.10;98.00;;;;;;5071817;28;20536;-60
2023/10/07 08:31:17;;;;;;;13.07;6.20;;;12.30;98.00;;;;;;5038738;28;20449;-62
2023/10/07 08:33:53;;;;;;;14.23;6.00;;;12.50;98.00;;;;;;5071906;28;20513;-60
2023/10/07 08:36:29;;;;;;;14.90;6.30;;;12.60;98.00;;;;;;5071543;28;20959;-58
2023/10/07 08:38:58;;;;;;;17.27;7.20;;;12.60;98.00;;;;;;5071713;28;20465;-59
2023/10/07 08:41:28;;;;;;;14.03;6.60;;;12.80;98.00;;;;;;5071411;28;20789;-59
2023/10/07 08:44:13;;;;;;;9.50;4.60;;;13.00;98.00;;;;;;5072172;28;20452;-60
2023/10/07 08:46:48;;;;;;;11.70;6.00;;;13.20;98.00;;;;;;5071624;28;20946;-60
2023/10/07 08:49:24;;;;;;;11.80;6.00;;;13.20;98.00;;;;;;5071551;28;20454;-59
2023/10/07 08:51:52;;;;;;;12.93;5.23;;;13.20;98.00;;;;;;5070880;28;20463;-59
2023/10/07 08:54:26;;;;;;;12.63;6.07;;;13.20;98.00;;;;;;5071425;28;20632;-59
2023/10/07 08:56:57;;;;;;;12.57;5.73;;;13.30;98.00;;;;;;5071496;28;20455;-59
2023/10/07 08:59:30;;;;;;;11.47;5.60;;;13.40;98.00;;;;;;5071192;28;20513;-59
2023/10/07 09:01:59;;;;;;;10.07;5.13;;;13.70;98.00;;;;;;5071458;28;20460;-60
2023/10/07 09:04:31;;;;;;;10.90;5.77;;;14.00;98.00;;;;;;5054054;28;20450;-59
2023/10/07 09:06:59;;;;;;;10.70;5.23;;;14.20;98.00;;;;;;5070932;28;20460;-60
2023/10/07 09:09:35;;;;;;;10.83;5.00;;;14.40;98.00;;;;;;5071270;28;20456;-59
2023/10/07 09:12:29;;;;;;;14.70;5.50;;;14.50;98.00;;;;;;5071184;28;20514;-59
2023/10/07 09:15:07;;;;;;;9.80;4.90;;;14.60;98.00;;;;;;5052657;28;20526;-61
2023/10/07 09:17:35;;;;;;;9.13;4.40;;;14.80;98.00;;;;;;5073915;28;20541;-59
2023/10/07 09:20:07;;;;;;;9.10;4.60;;;14.80;98.00;;;;;;5074427;28;20452;-59
2023/10/07 09:22:35;;;;;;;9.90;4.13;;;14.90;98.00;;;;;;5074583;28;20974;-60
2023/10/07 09:25:16;;;;;;;12.30;4.83;;;14.90;98.00;;;;;;5074879;28;21024;-59
2023/10/07 09:27:43;;;;;;;8.83;4.53;;;15.00;98.00;;;;;;5074758;28;20444;-59
2023/10/07 09:30:35;;;;;;;9.17;5.07;;;15.00;98.00;;;;;;5074762;28;20457;-59
2023/10/07 09:33:06;;;;;;;10.70;4.50;;;15.00;98.00;;;;;;5074709;28;20456;-60
2023/10/07 09:35:37;;;;;;;11.03;4.70;;;15.10;98.00;;;;;;5074788;28;20507;-59
2023/10/07 09:38:12;;;;;;;9.93;4.20;;;15.10;98.00;;;;;;5074792;28;20456;-59
2023/10/07 09:43:37;;;;;;;9.80;4.67;;;15.20;98.00;;;;;;5012443;28;20488;-59
2023/10/07 09:46:04;;;;;;;11.27;4.97;;;15.30;98.00;;;;;;5060272;28;20445;-60
2023/10/07 09:48:35;;;;;;;10.30;4.70;;;15.40;98.00;;;;;;5074741;28;20464;-59
2023/10/07 09:51:14;;;;;;;9.13;4.83;;;15.60;98.00;;;;;;5074346;28;20463;-59
2023/10/07 09:53:57;;;;;;;9.13;4.93;;;15.70;98.00;;;;;;5074506;28;20456;-59
2023/10/07 09:56:38;;;;;;;9.57;4.63;;;15.70;98.00;;;;;;5074424;28;21021;-59
2023/10/07 09:59:22;;;;;;;9.97;4.53;;;15.70;98.00;;;;;;5074600;28;20463;-61
2023/10/07 10:02:16;;;;;;;8.73;4.20;;;15.80;98.00;;;;;;5057724;28;20463;-59
2023/10/07 10:05:05;;;;;;;10.57;5.00;;;15.90;98.00;;;;;;5074456;28;20444;-59
2023/10/07 10:08:11;;;;;;;9.23;3.97;;;15.90;98.00;;;;;;5073821;28;20455;-60
2023/10/07 10:10:44;;;;;;;7.87;4.13;;;16.00;98.00;;;;;;5056244;28;20444;-60
2023/10/07 10:13:28;;;;;;;9.40;4.13;;;16.10;98.00;;;;;;5074090;28;20453;-60
2023/10/07 10:16:00;;;;;;;8.63;4.30;;;16.20;98.00;;;;;;5074050;28;20515;-60
2023/10/07 10:18:40;;;;;;;9.50;4.50;;;16.30;98.00;;;;;;5073300;28;20460;-60
2023/10/07 10:21:09;;;;;;;8.20;4.10;;;16.40;98.00;;;;;;5073702;28;20463;-60
2023/10/07 10:23:40;;;;;;;11.17;4.70;;;16.50;98.00;;;;;;5073661;28;20955;-61
2023/10/07 10:26:22;;;;;;;8.10;4.27;;;16.60;98.00;;;;;;5073284;28;20489;-60
2023/10/07 10:29:04;;;;;;;11.13;4.27;;;16.80;98.00;;;;;;5072383;28;20457;-60
2023/10/07 10:31:33;;;;;;;7.30;4.30;;;16.90;98.00;;;;;;5073067;28;20456;-59
2023/10/07 10:34:04;;;;;;;8.90;4.70;;;17.10;98.00;;;;;;5073148;28;20871;-59
2023/10/07 10:36:35;;;;;;;9.80;4.50;;;17.20;98.00;;;;;;5072977;28;20487;-60
2023/10/07 10:39:06;;;;;;;9.27;4.47;;;17.30;98.00;;;;;;5072577;28;20452;-60
2023/10/07 10:41:33;;;;;;;9.60;4.90;;;17.50;98.00;;;;;;5072583;28;20453;-60
2023/10/07 10:44:06;;;;;;;11.77;5.30;;;17.60;98.00;;;;;;5072661;28;20445;-60
2023/10/07 10:46:44;;;;;;;8.67;4.57;;;17.80;98.00;;;;;;5071959;28;20848;-59
2023/10/07 10:49:16;;;;;;;9.03;4.53;;;17.90;98.00;;;;;;5072682;28;20448;-60
2023/10/07 10:51:50;;;;;;;11.13;4.80;;;18.00;98.00;;;;;;5072011;28;20500;-59
2023/10/07 10:54:20;;;;;;;10.70;4.93;;;18.00;98.00;;;;;;5055607;28;20480;-60
2023/10/07 10:56:49;;;;;;;10.70;5.27;;;18.10;98.00;;;;;;5072412;28;20857;-59
2023/10/07 10:59:17;;;;;;;9.50;4.70;;;18.20;98.00;;;;;;5072359;28;20456;-60
2023/10/07 11:01:49;;;;;;;8.63;4.50;;;18.30;98.00;;;;;;5072175;28;20526;-61
2023/10/07 11:04:19;;;;;;;8.63;4.30;;;18.50;98.00;;;;;;5072449;28;20959;-61
2023/10/07 11:06:50;;;;;;;9.50;4.53;;;18.60;98.00;;;;;;5072147;28;20951;-59
2023/10/07 11:09:25;;;;;;;13.03;4.70;;;18.60;98.00;;;;;;5072191;28;20644;-60
2023/10/07 11:11:55;;;;;;;7.97;4.10;;;18.60;98.00;;;;;;5071602;28;20536;-61
2023/10/07 11:14:23;;;;;;;8.53;4.83;;;18.80;98.00;;;;;;5071947;28;20962;-59
2023/10/07 11:16:52;;;;;;;6.50;3.67;;;19.00;98.00;;;;;;5054265;28;20484;-60
2023/10/07 11:19:20;;;;;;;7.10;4.00;;;19.10;98.00;;;;;;5072112;28;20962;-60
2023/10/07 11:21:49;;;;;;;6.50;3.60;;;19.10;98.00;;;;;;5072004;28;20487;-60
2023/10/07 11:24:34;;;;;;;6.93;3.90;;;19.10;98.00;;;;;;5072092;28;20480;-59
2023/10/07 11:27:02;;;;;;;5.83;3.70;;;19.00;98.00;;;;;;5071868;28;20506;-61
2023/10/07 11:29:31;;;;;;;10.40;3.93;;;19.00;98.00;;;;;;5071741;28;20456;-60
2023/10/07 11:32:02;;;;;;;8.30;3.80;;;19.00;98.00;;;;;;5071829;28;20485;-60
2023/10/07 11:34:36;;;;;;;8.83;3.70;;;19.10;98.00;;;;;;5072079;28;20460;-60
2023/10/07 11:37:09;;;;;;;9.63;4.20;;;19.20;98.00;;;;;;5071688;28;20824;-60
2023/10/07 11:39:43;;;;;;;8.63;3.83;;;19.30;98.00;;;;;;5071739;28;20527;-60
2023/10/07 11:42:21;;;;;;;7.90;4.10;;;19.40;98.00;;;;;;5071642;28;20524;-60
2023/10/07 11:44:54;;;;;;;7.70;3.83;;;19.60;98.00;;;;;;5071741;28;20451;-60
2023/10/07 11:47:23;;;;;;;8.03;4.20;;;19.80;98.00;;;;;;5071578;28;20449;-60
2023/10/07 11:49:50;;;;;;;6.80;3.67;;;19.80;98.00;;;;;;5071675;28;20475;-63
2023/10/07 11:52:19;;;;;;;7.40;3.43;;;19.90;98.00;;;;;;5072200;28;20459;-60
2023/10/07 11:54:48;;;;;;;5.30;3.33;;;19.90;98.00;;;;;;5071888;28;20491;-60
2023/10/07 11:57:18;;;;;;;5.63;3.47;;;19.80;98.00;;;;;;5072328;28;20463;-59
2023/10/07 11:59:45;;;;;;;6.27;3.23;;;19.90;98.00;;;;;;5072075;28;20463;-60
2023/10/07 12:02:14;;;;;;;7.57;3.23;;;19.90;98.00;;;;;;5071800;28;20965;-59
2023/10/07 12:04:46;;;;;;;7.37;3.80;;;20.00;98.00;;;;;;5072165;28;20494;-59
2023/10/07 12:07:14;;;;;;;7.20;3.43;;;19.90;98.00;;;;;;5071956;28;20449;-60
2023/10/07 12:09:42;;;;;;;5.07;3.20;;;20.00;98.00;;;;;;5071816;28;20498;-60
2023/10/07 12:12:11;;;;;;;7.37;3.20;;;20.10;98.00;;;;;;5071519;28;20449;-60
2023/10/07 12:14:38;;;;;;;13.40;3.50;;;20.20;98.00;;;;;;5071985;28;20453;-60
2023/10/07 12:17:07;;;;;;;7.63;3.40;;;20.40;98.00;;;;;;5071768;28;20484;-60
2023/10/07 12:19:36;;;;;;;5.97;3.07;;;20.40;98.00;;;;;;5071600;28;20966;-60
2023/10/07 12:22:05;;;;;;;5.60;2.77;;;20.30;98.00;;;;;;5071205;28;20833;-59
2023/10/07 12:24:33;;;;;;;4.80;2.83;;;20.40;98.00;;;;;;5071729;28;20444;-61
2023/10/07 12:27:06;;;;;;;6.57;3.17;;;20.40;98.00;;;;;;5053767;28;20464;-60
2023/10/07 12:29:35;;;;;;;6.67;2.87;;;20.40;98.00;;;;;;5071624;28;20453;-59
2023/10/07 12:32:02;;;;;;;7.30;2.97;;;20.60;98.00;;;;;;5071431;28;20497;-60
2023/10/07 12:34:30;;;;;;;4.60;2.70;;;20.70;98.00;;;;;;5053953;28;20473;-59
2023/10/07 12:36:57;;;;;;;6.70;3.07;;;20.80;98.00;;;;;;5071627;28;20480;-60
2023/10/07 12:39:26;;;;;;;6.53;3.00;;;20.80;98.00;;;;;;5071656;28;20811;-60
2023/10/07 12:41:54;;;;;;;5.73;2.97;;;20.70;98.00;;;;;;5071470;28;21002;-60
2023/10/07 12:44:22;;;;;;;4.30;2.80;;;20.60;98.00;;;;;;5071647;28;20451;-60
2023/10/07 12:46:51;;;;;;;4.33;2.80;;;20.60;98.00;;;;;;5071591;28;20459;-60
2023/10/07 12:49:18;;;;;;;7.00;3.27;;;20.70;97.50;;;;;;5071670;28;20452;-60
2023/10/07 12:51:47;;;;;;;4.80;3.00;;;20.80;98.00;;;;;;5073410;28;20943;-60
2023/10/07 12:54:14;;;;;;;6.23;2.83;;;20.80;97.90;;;;;;5075609;28;20456;-60
2023/10/07 12:56:46;;;;;;;5.30;2.90;;;20.70;97.20;;;;;;5057933;28;20925;-60
2023/10/07 12:59:22;;;;;;;5.17;2.80;;;20.70;97.10;;;;;;5075509;28;20476;-60
2023/10/07 13:01:51;;;;;;;5.47;3.27;;;20.60;97.70;;;;;;5075608;28;20527;-59
2023/10/07 13:04:20;;;;;;;5.00;3.27;;;20.60;97.60;;;;;;5075591;28;20450;-60
2023/10/07 13:06:48;;;;;;;7.60;3.40;;;20.50;97.70;;;;;;5075393;28;20488;-60
2023/10/07 13:09:17;;;;;;;4.73;3.00;;;20.50;98.00;;;;;;5075345;28;20457;-60
2023/10/07 13:11:47;;;;;;;6.93;3.13;;;20.50;97.40;;;;;;5075453;28;20541;-60
2023/10/07 13:14:15;;;;;;;7.20;2.67;;;20.40;98.00;;;;;;5075393;28;20452;-60
2023/10/07 13:16:45;;;;;;;4.23;2.60;;;20.50;98.00;;;;;;5075032;28;20527;-60
2023/10/07 13:19:14;;;;;;;7.20;3.10;;;20.50;98.00;;;;;;5075264;28;20502;-60
2023/10/07 13:21:42;;;;;;;6.73;3.43;;;20.50;97.20;;;;;;5075338;28;21121;-59
2023/10/07 13:24:11;;;;;;;4.90;2.93;;;20.60;97.30;;;;;;5075181;28;20532;-60